Time;durP1;ratioP1;P1;durP2;ratioP2;P2;SDS_P1;SDS_P2;PMS_P1;PMS_P2;Temp;Humidity;BMP_temperature;BMP_pressure;BME280_temperature;BME280_humidity;BME280_pressure;Samples;Min_cycle;Max_cycle;Signal;HPM_P1;HPM_P2
2022/04/06 00:01:26;;;;;;;;;;;16.20;64.40;;;;;;4985946;28;19922;-90
2022/04/06 00:03:52;;;;;;;;;;;16.20;64.40;;;;;;4951137;28;20005;-90
2022/04/06 00:06:17;;;;;;;;;;;16.20;64.20;;;;;;4967559;28;19915;-89
2022/04/06 00:08:43;;;;;;;;;;;16.20;64.20;;;;;;4971936;28;19914;-89
2022/04/06 00:11:08;;;;;;;;;;;16.20;64.10;;;;;;4972595;28;19954;-89
2022/04/06 00:13:33;;;;;;;;;;;16.20;64.30;;;;;;4978893;28;19922;-90
2022/04/06 00:15:59;;;;;;;;;;;16.20;64.30;;;;;;4959091;28;19914;-89
2022/04/06 00:18:26;;;;;;;;;;;16.20;64.30;;;;;;4968361;28;20005;-88
2022/04/06 00:20:51;;;;;;;;;;;16.20;64.30;;;;;;4953889;28;20013;-88
2022/04/06 00:23:17;;;;;;;;;;;16.20;64.20;;;;;;4975915;28;20385;-89
2022/04/06 00:25:42;;;;;;;;;;;16.20;64.30;;;;;;4969169;28;19941;-89
2022/04/06 00:28:08;;;;;;;;;;;16.20;64.10;;;;;;4970152;28;19922;-89
2022/04/06 00:30:33;;;;;;;;;;;16.20;64.10;;;;;;4976998;28;19926;-89
2022/04/06 00:32:59;;;;;;;;;;;16.20;64.00;;;;;;4981854;28;19914;-90
2022/04/06 00:35:34;;;;;;;;;;;16.20;64.20;;;;;;4969819;28;19962;-90
2022/04/06 00:38:03;;;;;;;;;;;16.10;64.30;;;;;;4975734;28;19921;-90
2022/04/06 00:40:30;;;;;;;;;;;16.20;64.40;;;;;;4974416;28;19965;-90
2022/04/06 00:42:56;;;;;;;;;;;16.10;64.00;;;;;;4972830;28;19965;-89
2022/04/06 00:45:22;;;;;;;;;;;16.10;64.30;;;;;;4975110;28;19926;-89
2022/04/06 00:47:48;;;;;;;;;;;16.10;64.30;;;;;;4960259;28;20279;-89
2022/04/06 00:50:14;;;;;;;;;;;16.10;64.30;;;;;;4976668;28;19925;-89
2022/04/06 00:52:40;;;;;;;;;;;16.10;64.40;;;;;;4971085;28;20315;-90
2022/04/06 00:55:07;;;;;;;;;;;16.20;64.40;;;;;;4977641;28;19964;-90
2022/04/06 00:57:33;;;;;;;;;;;16.20;64.40;;;;;;4966297;28;19918;-89
2022/04/06 00:59:58;;;;;;;;;;;16.20;64.30;;;;;;4976656;28;19925;-90
2022/04/06 01:02:24;;;;;;;;;;;16.20;64.30;;;;;;4957446;28;19937;-89
2022/04/06 01:04:50;;;;;;;;;;;16.10;64.30;;;;;;4974077;28;20017;-90
2022/04/06 01:07:15;;;;;;;;;;;16.20;64.20;;;;;;4950015;28;20366;-88
2022/04/06 01:09:41;;;;;;;;;;;16.20;64.20;;;;;;4974669;28;20285;-88
2022/04/06 01:12:07;;;;;;;;;;;16.20;64.20;;;;;;4975199;28;19961;-88
2022/04/06 01:14:32;;;;;;;;;;;16.20;64.20;;;;;;4968540;28;20009;-89
2022/04/06 01:17:07;;;;;;;;;;;16.20;64.00;;;;;;4957817;28;20315;-89
2022/04/06 01:19:36;;;;;;;;;;;16.20;64.20;;;;;;4963938;28;19918;-89
2022/04/06 01:22:09;;;;;;;;;;;16.20;64.20;;;;;;4975015;28;20009;-88
2022/04/06 01:24:34;;;;;;;;;;;16.20;64.20;;;;;;4967844;28;19926;-89
2022/04/06 01:27:01;;;;;;;;;;;16.20;63.90;;;;;;4958312;28;19921;-89
2022/04/06 01:29:27;;;;;;;;;;;16.20;64.10;;;;;;4973458;28;20278;-89
2022/04/06 01:31:52;;;;;;;;;;;16.20;64.20;;;;;;4972009;28;19918;-89
2022/04/06 01:34:17;;;;;;;;;;;16.20;64.00;;;;;;4956789;28;19918;-88
2022/04/06 01:36:43;;;;;;;;;;;16.20;63.90;;;;;;4962491;28;19921;-89
2022/04/06 01:39:08;;;;;;;;;;;16.20;64.00;;;;;;4967137;28;20009;-89
2022/04/06 01:41:34;;;;;;;;;;;16.20;64.10;;;;;;4974203;28;20057;-88
2022/04/06 01:44:03;;;;;;;;;;;16.20;64.00;;;;;;4966170;28;19926;-89
2022/04/06 01:46:28;;;;;;;;;;;16.20;64.00;;;;;;4958911;28;20370;-89
2022/04/06 01:54:22;;;;;;;;;;;16.10;64.10;;;;;;4981278;28;20401;-90
2022/04/06 01:56:47;;;;;;;;;;;16.10;64.20;;;;;;4969327;28;19914;-89
2022/04/06 01:59:12;;;;;;;;;;;16.10;63.90;;;;;;4972602;28;19965;-89
2022/04/06 02:01:38;;;;;;;;;;;16.10;64.00;;;;;;4950537;28;19995;-89
2022/04/06 02:04:12;;;;;;;;;;;16.10;64.10;;;;;;4974471;28;19928;-89
2022/04/06 02:06:37;;;;;;;;;;;16.10;64.00;;;;;;4950849;28;19946;-90
2022/04/06 02:09:02;;;;;;;;;;;16.00;63.90;;;;;;4973452;28;19925;-89
2022/04/06 02:11:28;;;;;;;;;;;16.00;63.80;;;;;;4950236;28;19915;-89
2022/04/06 02:13:53;;;;;;;;;;;16.00;63.90;;;;;;4965440;28;19997;-89
2022/04/06 02:16:19;;;;;;;;;;;16.00;63.90;;;;;;4958793;28;19915;-88
2022/04/06 02:18:44;;;;;;;;;;;16.00;64.00;;;;;;4950600;28;19953;-89
2022/04/06 02:21:10;;;;;;;;;;;16.00;64.10;;;;;;4969663;28;19929;-89
2022/04/06 02:23:35;;;;;;;;;;;16.00;63.90;;;;;;4968542;28;19922;-89
2022/04/06 02:26:00;;;;;;;;;;;16.00;64.00;;;;;;4958330;28;20398;-89
2022/04/06 02:28:26;;;;;;;;;;;16.00;63.90;;;;;;4964050;28;19918;-90
2022/04/06 02:30:51;;;;;;;;;;;16.00;64.00;;;;;;4956935;28;20282;-88
2022/04/06 02:33:17;;;;;;;;;;;16.00;64.00;;;;;;4949600;28;19997;-89
2022/04/06 02:35:42;;;;;;;;;;;16.00;63.90;;;;;;4968291;28;19918;-89
2022/04/06 02:38:08;;;;;;;;;;;16.00;64.00;;;;;;4959735;28;19914;-88
2022/04/06 02:40:33;;;;;;;;;;;16.00;63.60;;;;;;4987129;28;19918;-89
2022/04/06 02:42:58;;;;;;;;;;;16.00;63.80;;;;;;4967071;28;19962;-89
2022/04/06 02:45:24;;;;;;;;;;;16.00;63.60;;;;;;4968146;28;19927;-89
2022/04/06 02:47:49;;;;;;;;;;;15.90;63.80;;;;;;4977776;28;19938;-89
2022/04/06 02:50:15;;;;;;;;;;;15.90;63.70;;;;;;4984905;28;19949;-89
2022/04/06 02:52:40;;;;;;;;;;;15.90;63.80;;;;;;4965080;28;20001;-88
2022/04/06 02:55:09;;;;;;;;;;;15.90;63.90;;;;;;4976051;28;19918;-88
2022/04/06 02:57:34;;;;;;;;;;;15.90;63.80;;;;;;4960512;28;19922;-89
2022/04/06 03:00:00;;;;;;;;;;;15.90;63.80;;;;;;4978456;28;19918;-88
2022/04/06 03:02:25;;;;;;;;;;;15.90;63.70;;;;;;4973726;28;20048;-88
2022/04/06 03:04:51;;;;;;;;;;;15.90;63.70;;;;;;4963241;28;19918;-89
2022/04/06 03:07:17;;;;;;;;;;;15.80;63.60;;;;;;4977274;28;19942;-88
2022/04/06 03:09:42;;;;;;;;;;;15.80;63.60;;;;;;4976559;28;19918;-89
2022/04/06 03:12:08;;;;;;;;;;;15.80;63.70;;;;;;4957059;28;19921;-89
2022/04/06 03:14:34;;;;;;;;;;;15.80;63.70;;;;;;4963907;28;19933;-90
2022/04/06 03:16:59;;;;;;;;;;;15.80;63.90;;;;;;4977749;28;19925;-90
2022/04/06 03:19:24;;;;;;;;;;;15.80;63.70;;;;;;4976337;28;20013;-89
2022/04/06 03:21:50;;;;;;;;;;;15.80;63.80;;;;;;4975862;28;19929;-89
2022/04/06 03:24:15;;;;;;;;;;;15.80;63.70;;;;;;4976636;28;19925;-89
2022/04/06 03:26:41;;;;;;;;;;;15.80;63.60;;;;;;4973596;28;19918;-90
2022/04/06 03:29:06;;;;;;;;;;;15.80;63.70;;;;;;4975157;28;20005;-91
2022/04/06 03:31:32;;;;;;;;;;;15.80;63.70;;;;;;4982677;28;19914;-90
2022/04/06 03:33:57;;;;;;;;;;;15.80;63.60;;;;;;4959489;28;19986;-88
2022/04/06 03:36:22;;;;;;;;;;;15.80;63.80;;;;;;4957747;28;19921;-89
2022/04/06 03:38:48;;;;;;;;;;;15.80;63.80;;;;;;4961980;28;19941;-89
2022/04/06 03:41:15;;;;;;;;;;;15.80;63.60;;;;;;4959323;28;19926;-90
2022/04/06 03:43:40;;;;;;;;;;;15.80;63.70;;;;;;4957038;28;19918;-90
2022/04/06 03:46:05;;;;;;;;;;;15.80;63.40;;;;;;4967505;28;19914;-90
2022/04/06 03:48:31;;;;;;;;;;;15.80;63.60;;;;;;4966800;28;19914;-89
2022/04/06 03:50:56;;;;;;;;;;;15.80;63.60;;;;;;4956589;28;20009;-89
2022/04/06 03:53:22;;;;;;;;;;;15.80;63.40;;;;;;4982721;28;20286;-90
2022/04/06 03:55:47;;;;;;;;;;;15.80;63.50;;;;;;4960371;28;19950;-88
2022/04/06 03:58:13;;;;;;;;;;;15.80;63.50;;;;;;4957071;28;19914;-89
2022/04/06 04:00:38;;;;;;;;;;;15.70;63.10;;;;;;4975306;28;19918;-88
2022/04/06 04:03:05;;;;;;;;;;;15.70;63.30;;;;;;4951230;28;19926;-89
2022/04/06 04:05:31;;;;;;;;;;;15.70;63.40;;;;;;4972628;28;19925;-89
2022/04/06 04:07:56;;;;;;;;;;;15.70;63.40;;;;;;4952435;29;19997;-89
2022/04/06 04:10:22;;;;;;;;;;;15.70;63.50;;;;;;4973503;28;20817;-89
2022/04/06 04:12:48;;;;;;;;;;;15.80;63.20;;;;;;4957661;28;19914;-89
2022/04/06 04:15:13;;;;;;;;;;;15.70;63.30;;;;;;4952540;28;19922;-89
2022/04/06 04:17:39;;;;;;;;;;;15.70;63.10;;;;;;4977742;28;19969;-89
2022/04/06 04:20:05;;;;;;;;;;;15.70;63.20;;;;;;4969100;28;19918;-89
2022/04/06 04:22:31;;;;;;;;;;;15.70;63.10;;;;;;4958170;28;19926;-89
2022/04/06 04:24:56;;;;;;;;;;;15.80;63.20;;;;;;4948648;28;19922;-89
2022/04/06 04:27:22;;;;;;;;;;;15.70;63.10;;;;;;4947982;28;19918;-89
2022/04/06 04:29:47;;;;;;;;;;;15.70;63.20;;;;;;4965687;28;20335;-89
2022/04/06 04:32:14;;;;;;;;;;;15.70;63.20;;;;;;4961657;28;19914;-89
2022/04/06 04:34:40;;;;;;;;;;;15.70;63.10;;;;;;4970997;28;19918;-90
2022/04/06 04:37:06;;;;;;;;;;;15.70;63.10;;;;;;4969867;28;19922;-89
2022/04/06 04:39:31;;;;;;;;;;;15.70;63.10;;;;;;4959013;28;19942;-89
2022/04/06 04:41:57;;;;;;;;;;;15.70;63.20;;;;;;4956462;28;19927;-89
2022/04/06 04:44:22;;;;;;;;;;;15.70;63.10;;;;;;4966453;28;19918;-89
2022/04/06 04:46:48;;;;;;;;;;;15.70;63.30;;;;;;4963642;28;19913;-90
2022/04/06 04:49:13;;;;;;;;;;;15.70;62.90;;;;;;4979257;28;19922;-89
2022/04/06 04:51:39;;;;;;;;;;;15.70;63.10;;;;;;4978295;28;19938;-88
2022/04/06 04:54:04;;;;;;;;;;;15.70;63.10;;;;;;4976695;28;20001;-89
2022/04/06 04:56:32;;;;;;;;;;;15.70;63.10;;;;;;4995719;28;19914;-89
2022/04/06 04:58:58;;;;;;;;;;;15.70;63.00;;;;;;4994935;28;20365;-89
2022/04/06 05:01:24;;;;;;;;;;;15.70;62.80;;;;;;4995085;28;19925;-88
2022/04/06 05:03:50;;;;;;;;;;;15.70;62.90;;;;;;4993579;28;20027;-89
2022/04/06 05:06:15;;;;;;;;;;;15.70;62.70;;;;;;4968569;28;19926;-88
2022/04/06 05:08:41;;;;;;;;;;;15.70;62.60;;;;;;4965421;28;20021;-89
2022/04/06 05:11:07;;;;;;;;;;;15.70;62.70;;;;;;4959335;28;19918;-89
2022/04/06 05:13:32;;;;;;;;;;;15.80;62.90;;;;;;4978683;28;20290;-89
2022/04/06 05:15:58;;;;;;;;;;;15.80;62.80;;;;;;4988018;28;19914;-89
2022/04/06 05:18:23;;;;;;;;;;;15.80;62.70;;;;;;4995325;28;19914;-88
2022/04/06 05:20:49;;;;;;;;;;;15.80;62.50;;;;;;4955767;28;20316;-90
2022/04/06 05:23:15;;;;;;;;;;;15.80;62.50;;;;;;4995619;28;19918;-89
2022/04/06 05:25:41;;;;;;;;;;;15.80;62.50;;;;;;4981902;28;20435;-90
2022/04/06 05:28:08;;;;;;;;;;;15.80;62.50;;;;;;4958763;28;19942;-90
2022/04/06 05:30:34;;;;;;;;;;;15.80;62.60;;;;;;4968658;28;19980;-90
2022/04/06 05:32:59;;;;;;;;;;;15.80;62.60;;;;;;4949931;29;19915;-90
2022/04/06 05:35:26;;;;;;;;;;;15.80;62.30;;;;;;4974024;28;20315;-89
2022/04/06 05:37:51;;;;;;;;;;;15.80;62.40;;;;;;4979322;28;19922;-87
2022/04/06 05:40:18;;;;;;;;;;;15.80;62.40;;;;;;4969094;28;19961;-88
2022/04/06 05:42:43;;;;;;;;;;;15.80;62.30;;;;;;4959478;28;19926;-89
2022/04/06 05:45:10;;;;;;;;;;;15.80;62.30;;;;;;4963941;28;19914;-89
2022/04/06 05:47:36;;;;;;;;;;;15.90;62.20;;;;;;4975469;28;20005;-90
2022/04/06 05:50:03;;;;;;;;;;;15.90;62.30;;;;;;4972928;28;20449;-89
2022/04/06 05:52:28;;;;;;;;;;;15.90;62.10;;;;;;4975421;28;19960;-90
2022/04/06 05:54:54;;;;;;;;;;;15.80;62.00;;;;;;4959322;28;19918;-89
2022/04/06 05:57:20;;;;;;;;;;;15.90;61.70;;;;;;4978461;28;19937;-90
2022/04/06 05:59:45;;;;;;;;;;;15.90;61.80;;;;;;4959681;28;19921;-89
2022/04/06 06:02:11;;;;;;;;;;;15.90;62.10;;;;;;4966255;28;20363;-89
2022/04/06 06:04:38;;;;;;;;;;;16.00;62.10;;;;;;4965104;28;20370;-89
2022/04/06 06:07:05;;;;;;;;;;;16.00;62.00;;;;;;4968269;28;20339;-89
2022/04/06 06:09:30;;;;;;;;;;;16.00;62.10;;;;;;4964891;28;19943;-90
2022/04/06 06:11:56;;;;;;;;;;;16.10;61.90;;;;;;4957095;29;19922;-90
2022/04/06 06:14:22;;;;;;;;;;;16.20;62.00;;;;;;4959384;28;20395;-89
2022/04/06 06:16:49;;;;;;;;;;;16.20;62.00;;;;;;4977087;28;19945;-88
2022/04/06 06:19:14;;;;;;;;;;;16.20;61.50;;;;;;4979988;28;19949;-90
2022/04/06 06:21:40;;;;;;;;;;;16.20;61.50;;;;;;4974506;28;20446;-90
2022/04/06 06:24:06;;;;;;;;;;;16.20;61.20;;;;;;4975169;28;19997;-89
2022/04/06 06:26:32;;;;;;;;;;;16.20;61.10;;;;;;4961926;28;20242;-89
2022/04/06 06:28:57;;;;;;;;;;;16.30;60.90;;;;;;4978728;28;19918;-88
2022/04/06 06:31:23;;;;;;;;;;;16.30;60.80;;;;;;4959314;28;19918;-89
2022/04/06 06:33:49;;;;;;;;;;;16.30;61.00;;;;;;4970247;28;19926;-90
2022/04/06 06:36:15;;;;;;;;;;;16.40;61.20;;;;;;4965305;28;19926;-89
2022/04/06 06:38:41;;;;;;;;;;;16.50;61.00;;;;;;4956842;28;19918;-90
2022/04/06 06:41:06;;;;;;;;;;;16.50;61.00;;;;;;4970219;28;19930;-88
2022/04/06 06:43:34;;;;;;;;;;;16.60;60.70;;;;;;4970142;28;20667;-89
2022/04/06 06:46:00;;;;;;;;;;;16.70;60.40;;;;;;4969235;28;19923;-88
2022/04/06 06:48:26;;;;;;;;;;;16.70;60.30;;;;;;4967801;28;19944;-90
2022/04/06 06:50:51;;;;;;;;;;;16.80;60.70;;;;;;4972839;28;19941;-87
2022/04/06 06:53:16;;;;;;;;;;;16.80;60.20;;;;;;4974625;28;19925;-88
2022/04/06 06:55:42;;;;;;;;;;;16.90;60.80;;;;;;4948347;28;19921;-89
2022/04/06 06:58:07;;;;;;;;;;;17.10;60.80;;;;;;4976887;28;19918;-88
2022/04/06 07:00:33;;;;;;;;;;;17.20;60.60;;;;;;4966074;28;19926;-88
2022/04/06 07:02:58;;;;;;;;;;;17.30;60.30;;;;;;4958555;28;19926;-89
2022/04/06 07:05:24;;;;;;;;;;;17.40;59.70;;;;;;4972433;28;19929;-90
2022/04/06 07:07:54;;;;;;;;;;;17.50;60.10;;;;;;4970343;28;19918;-91
2022/04/06 07:10:22;;;;;;;;;;;17.40;59.10;;;;;;4959088;28;19914;-89
2022/04/06 07:12:48;;;;;;;;;;;17.60;58.80;;;;;;4976940;28;19929;-90
2022/04/06 07:15:14;;;;;;;;;;;17.60;59.50;;;;;;4978126;28;19914;-89
2022/04/06 07:17:39;;;;;;;;;;;17.70;59.50;;;;;;4976764;28;20378;-90
2022/04/06 07:20:05;;;;;;;;;;;17.80;58.30;;;;;;4977949;28;19925;-88
2022/04/06 07:22:31;;;;;;;;;;;17.70;57.70;;;;;;4975126;28;19922;-89
2022/04/06 07:24:56;;;;;;;;;;;17.80;58.30;;;;;;4976251;28;20516;-90
2022/04/06 07:27:21;;;;;;;;;;;17.80;58.80;;;;;;4966614;28;19921;-90
2022/04/06 07:29:47;;;;;;;;;;;17.90;57.40;;;;;;4973611;28;19945;-90
2022/04/06 07:32:12;;;;;;;;;;;17.80;56.90;;;;;;4995266;28;19961;-89
2022/04/06 07:34:38;;;;;;;;;;;17.80;56.20;;;;;;4976455;28;19941;-91
2022/04/06 07:37:04;;;;;;;;;;;17.70;56.40;;;;;;4996570;28;20121;-90
2022/04/06 07:39:29;;;;;;;;;;;17.70;56.90;;;;;;5002017;28;19924;-90
2022/04/06 07:41:58;;;;;;;;;;;17.70;57.20;;;;;;4975198;28;19973;-90
2022/04/06 07:44:23;;;;;;;;;;;17.60;56.70;;;;;;4972952;28;20706;-92
2022/04/06 07:46:50;;;;;;;;;;;17.60;56.40;;;;;;4995973;28;19989;-90
2022/04/06 07:49:15;;;;;;;;;;;17.50;56.00;;;;;;4991634;28;20525;-90
2022/04/06 07:51:42;;;;;;;;;;;17.50;55.90;;;;;;4994595;28;20218;-89
2022/04/06 07:54:08;;;;;;;;;;;17.50;56.60;;;;;;5000609;28;19928;-91
2022/04/06 07:56:33;;;;;;;;;;;17.50;55.80;;;;;;4976711;28;19970;-90
2022/04/06 07:58:59;;;;;;;;;;;17.40;55.90;;;;;;4991892;28;19949;-91
2022/04/06 08:01:24;;;;;;;;;;;17.40;56.40;;;;;;4993342;28;19958;-90
2022/04/06 08:03:51;;;;;;;;;;;17.40;56.70;;;;;;4979367;28;19921;-90
2022/04/06 08:06:17;;;;;;;;;;;17.40;56.30;;;;;;4978300;28;19925;-90
2022/04/06 08:08:42;;;;;;;;;;;17.30;56.20;;;;;;4979206;28;20009;-91
2022/04/06 08:11:08;;;;;;;;;;;17.30;56.20;;;;;;4981929;28;19922;-90
2022/04/06 08:13:34;;;;;;;;;;;17.20;55.70;;;;;;4996902;28;19920;-88
2022/04/06 08:15:59;;;;;;;;;;;17.20;56.00;;;;;;4989589;28;19921;-89
2022/04/06 08:18:25;;;;;;;;;;;17.10;56.60;;;;;;4978864;28;19992;-90
2022/04/06 08:20:51;;;;;;;;;;;17.10;56.20;;;;;;4978573;28;20314;-90
2022/04/06 08:23:18;;;;;;;;;;;17.10;56.70;;;;;;4996231;28;20274;-90
2022/04/06 08:25:44;;;;;;;;;;;17.10;57.30;;;;;;4995017;28;20309;-89
2022/04/06 08:28:10;;;;;;;;;;;17.10;56.20;;;;;;4978186;28;19936;-90
2022/04/06 08:30:39;;;;;;;;;;;17.10;56.90;;;;;;4994571;28;19914;-91
2022/04/06 08:33:05;;;;;;;;;;;17.00;56.40;;;;;;4977321;28;19972;-88
2022/04/06 08:35:30;;;;;;;;;;;17.00;55.90;;;;;;4996227;28;20000;-90
2022/04/06 08:37:56;;;;;;;;;;;17.00;56.20;;;;;;4994791;28;19905;-90
2022/04/06 08:40:21;;;;;;;;;;;17.00;55.90;;;;;;4979129;28;19918;-89
2022/04/06 08:42:47;;;;;;;;;;;16.90;55.60;;;;;;4994208;28;19964;-90
2022/04/06 08:45:22;;;;;;;;;;;16.90;56.30;;;;;;4994383;28;20642;-90
2022/04/06 08:47:51;;;;;;;;;;;16.90;55.60;;;;;;4995832;28;20589;-90
2022/04/06 08:50:17;;;;;;;;;;;16.90;55.70;;;;;;4993704;28;19914;-90
2022/04/06 08:52:44;;;;;;;;;;;16.90;55.20;;;;;;4993728;28;19972;-90
2022/04/06 08:55:10;;;;;;;;;;;16.90;55.40;;;;;;4994529;28;20598;-89
2022/04/06 08:57:35;;;;;;;;;;;16.90;53.80;;;;;;5004179;28;19925;-89
2022/04/06 09:00:01;;;;;;;;;;;16.90;55.10;;;;;;4994859;28;19929;-89
2022/04/06 09:02:27;;;;;;;;;;;17.00;55.10;;;;;;4994882;28;19967;-89
2022/04/06 09:04:53;;;;;;;;;;;17.10;55.40;;;;;;4995859;28;19914;-89
2022/04/06 09:07:20;;;;;;;;;;;17.20;54.60;;;;;;4980916;28;19941;-90
2022/04/06 09:09:53;;;;;;;;;;;17.20;54.30;;;;;;4978288;28;19957;-91
2022/04/06 09:12:22;;;;;;;;;;;17.30;54.10;;;;;;4977498;28;19918;-89
2022/04/06 09:14:48;;;;;;;;;;;17.30;54.20;;;;;;4976320;28;19913;-90
2022/04/06 09:17:18;;;;;;;;;;;17.30;54.10;;;;;;4993364;28;19932;-89
2022/04/06 09:19:49;;;;;;;;;;;17.30;53.20;;;;;;4990289;28;19944;-90
2022/04/06 09:22:15;;;;;;;;;;;17.30;53.40;;;;;;4977667;28;20040;-89
2022/04/06 09:24:40;;;;;;;;;;;17.30;55.10;;;;;;4978520;28;19922;-90
2022/04/06 09:27:06;;;;;;;;;;;17.30;53.90;;;;;;4979036;28;19922;-91
2022/04/06 09:29:34;;;;;;;;;;;17.30;54.10;;;;;;4987413;28;19918;-90
2022/04/06 09:32:10;;;;;;;;;;;17.30;53.90;;;;;;4978603;28;19922;-90
2022/04/06 09:34:35;;;;;;;;;;;17.30;54.40;;;;;;4978292;28;20431;-90
2022/04/06 09:37:19;;;;;;;;;;;17.30;54.80;;;;;;4994399;28;19953;-89
2022/04/06 09:39:46;;;;;;;;;;;17.30;54.40;;;;;;4974669;28;20052;-91
2022/04/06 09:42:18;;;;;;;;;;;17.30;54.40;;;;;;4994130;28;20289;-91
2022/04/06 09:47:51;;;;;;;;;;;17.20;53.60;;;;;;4992814;28;19999;-90
2022/04/06 09:50:26;;;;;;;;;;;17.20;53.10;;;;;;4976975;28;19918;-89
2022/04/06 09:52:52;;;;;;;;;;;17.20;53.30;;;;;;4996142;28;19926;-90
2022/04/06 09:55:19;;;;;;;;;;;17.20;53.40;;;;;;4977951;28;19921;-90
2022/04/06 09:57:51;;;;;;;;;;;17.30;53.30;;;;;;4994510;28;19929;-90
2022/04/06 10:00:18;;;;;;;;;;;17.30;54.00;;;;;;4993425;28;19918;-90
2022/04/06 10:02:48;;;;;;;;;;;17.40;53.70;;;;;;4976201;28;19937;-91
2022/04/06 10:05:17;;;;;;;;;;;17.50;53.90;;;;;;4975272;28;20000;-90
2022/04/06 10:07:43;;;;;;;;;;;17.50;53.80;;;;;;4993827;28;19918;-90
2022/04/06 10:10:09;;;;;;;;;;;17.60;55.10;;;;;;4977075;28;19941;-91
2022/04/06 10:12:35;;;;;;;;;;;17.70;55.10;;;;;;4995045;28;19926;-90
2022/04/06 10:15:01;;;;;;;;;;;17.70;54.60;;;;;;4993417;28;19956;-90
2022/04/06 10:17:29;;;;;;;;;;;17.70;53.50;;;;;;4975985;28;19925;-90
2022/04/06 10:20:14;;;;;;;;;;;17.70;53.80;;;;;;4974801;28;19951;-90
2022/04/06 10:22:45;;;;;;;;;;;17.70;54.10;;;;;;4975218;28;20648;-87
2022/04/06 10:25:14;;;;;;;;;;;17.70;54.00;;;;;;4975781;28;19972;-90
2022/04/06 10:27:42;;;;;;;;;;;17.70;54.10;;;;;;4976481;28;19921;-90
2022/04/06 10:30:09;;;;;;;;;;;17.70;54.40;;;;;;4976037;28;20400;-90
2022/04/06 10:32:38;;;;;;;;;;;17.70;53.80;;;;;;4994311;28;19933;-89
2022/04/06 10:35:22;;;;;;;;;;;17.70;53.30;;;;;;4992450;28;20365;-88
2022/04/06 10:37:49;;;;;;;;;;;17.60;52.40;;;;;;4971952;28;19922;-90
2022/04/06 10:40:15;;;;;;;;;;;17.70;53.30;;;;;;4994546;28;20004;-90
2022/04/06 10:42:42;;;;;;;;;;;17.60;52.80;;;;;;4990762;28;20402;-91
2022/04/06 10:45:28;;;;;;;;;;;17.70;52.60;;;;;;4993833;28;19921;-89
2022/04/06 10:48:08;;;;;;;;;;;17.70;52.70;;;;;;4959893;28;19918;-90
2022/04/06 10:50:34;;;;;;;;;;;17.70;51.80;;;;;;4993101;28;19933;-90
2022/04/06 10:53:18;;;;;;;;;;;17.70;52.70;;;;;;4994658;28;19914;-90
2022/04/06 10:55:57;;;;;;;;;;;17.80;52.40;;;;;;4974844;28;20002;-90
2022/04/06 10:58:26;;;;;;;;;;;18.00;52.50;;;;;;4979128;28;19917;-90
2022/04/06 11:01:10;;;;;;;;;;;18.00;51.10;;;;;;4996023;28;20014;-90
2022/04/06 11:03:40;;;;;;;;;;;18.10;49.60;;;;;;4980517;28;19960;-90
2022/04/06 11:06:05;;;;;;;;;;;18.00;49.20;;;;;;4978884;28;19918;-90
2022/04/06 11:11:44;;;;;;;;;;;18.00;48.60;;;;;;4992370;28;19980;-90
2022/04/06 11:14:10;;;;;;;;;;;18.00;49.30;;;;;;4982199;28;19924;-90
2022/04/06 11:16:39;;;;;;;;;;;18.00;49.40;;;;;;4995397;28;19985;-90
2022/04/06 11:19:05;;;;;;;;;;;18.10;49.10;;;;;;4992793;28;19918;-91
2022/04/06 11:21:31;;;;;;;;;;;18.00;48.40;;;;;;4995488;28;19938;-91
2022/04/06 11:23:57;;;;;;;;;;;18.00;48.80;;;;;;4994749;28;19914;-90
2022/04/06 11:26:23;;;;;;;;;;;18.10;49.30;;;;;;4989643;28;19928;-90
2022/04/06 11:29:01;;;;;;;;;;;18.10;48.30;;;;;;4989283;28;19925;-90
2022/04/06 11:31:26;;;;;;;;;;;18.00;48.20;;;;;;4994884;28;20017;-91
2022/04/06 11:33:52;;;;;;;;;;;18.00;49.00;;;;;;4995439;28;20008;-89
2022/04/06 11:36:18;;;;;;;;;;;18.10;48.20;;;;;;4970564;28;19925;-92
2022/04/06 11:38:48;;;;;;;;;;;18.00;47.40;;;;;;4995648;28;19914;-90
2022/04/06 11:41:14;;;;;;;;;;;18.00;48.20;;;;;;4979055;28;19921;-92
2022/04/06 11:43:40;;;;;;;;;;;18.10;48.00;;;;;;4993418;28;19965;-91
2022/04/06 11:46:06;;;;;;;;;;;18.20;48.40;;;;;;4987328;28;19945;-90
2022/04/06 11:48:41;;;;;;;;;;;18.30;47.70;;;;;;4972220;28;19921;-89
2022/04/06 11:51:07;;;;;;;;;;;18.40;48.10;;;;;;4983347;28;20491;-90
2022/04/06 11:53:33;;;;;;;;;;;18.50;47.00;;;;;;4991436;28;19918;-91
2022/04/06 11:56:00;;;;;;;;;;;18.50;47.30;;;;;;4979269;28;19917;-90
2022/04/06 11:58:29;;;;;;;;;;;18.60;46.10;;;;;;4992418;28;19916;-88
2022/04/06 12:00:58;;;;;;;;;;;18.60;45.60;;;;;;4996594;28;19925;-90
2022/04/06 12:03:28;;;;;;;;;;;18.40;45.50;;;;;;4968466;28;19964;-90
2022/04/06 12:05:53;;;;;;;;;;;18.50;45.40;;;;;;4980639;28;19918;-92
2022/04/06 12:08:18;;;;;;;;;;;18.50;45.10;;;;;;4975022;28;19972;-90
2022/04/06 12:10:49;;;;;;;;;;;18.50;45.20;;;;;;4980618;28;20345;-90
2022/04/06 12:13:15;;;;;;;;;;;18.60;46.00;;;;;;4977270;28;20014;-89
2022/04/06 12:15:41;;;;;;;;;;;18.50;45.50;;;;;;4997339;28;19926;-88
2022/04/06 12:18:09;;;;;;;;;;;18.60;45.80;;;;;;4992574;28;20444;-88
2022/04/06 12:20:35;;;;;;;;;;;18.70;46.10;;;;;;4978977;28;19918;-90
2022/04/06 12:23:01;;;;;;;;;;;18.70;45.80;;;;;;4997111;28;19952;-89
2022/04/06 12:25:31;;;;;;;;;;;18.70;45.20;;;;;;4980408;28;19945;-90
2022/04/06 12:28:15;;;;;;;;;;;18.70;46.10;;;;;;4993704;28;20698;-89
2022/04/06 12:30:53;;;;;;;;;;;18.60;45.30;;;;;;4989844;28;19952;-91
2022/04/06 12:33:34;;;;;;;;;;;18.60;45.30;;;;;;4978537;28;19952;-90
2022/04/06 12:36:11;;;;;;;;;;;18.50;45.30;;;;;;4979146;28;20369;-90
2022/04/06 12:38:37;;;;;;;;;;;18.50;45.90;;;;;;4992218;28;19921;-90
2022/04/06 12:41:13;;;;;;;;;;;18.50;45.90;;;;;;4989475;28;20354;-90
2022/04/06 12:43:40;;;;;;;;;;;18.50;45.70;;;;;;4981125;28;19921;-90
2022/04/06 12:46:05;;;;;;;;;;;18.60;46.00;;;;;;4994064;28;20358;-90
2022/04/06 12:48:31;;;;;;;;;;;18.60;46.00;;;;;;4990234;28;19929;-91
2022/04/06 12:50:57;;;;;;;;;;;18.60;46.10;;;;;;4979347;28;19968;-88
2022/04/06 12:53:23;;;;;;;;;;;18.60;46.60;;;;;;4996004;28;19925;-91
2022/04/06 12:56:07;;;;;;;;;;;18.60;46.10;;;;;;4981370;28;19926;-90
2022/04/06 12:58:33;;;;;;;;;;;18.60;46.10;;;;;;4974202;28;19964;-92
2022/04/06 13:00:58;;;;;;;;;;;18.40;45.60;;;;;;4997000;28;19969;-92
2022/04/06 13:03:25;;;;;;;;;;;18.30;45.80;;;;;;4991679;28;19930;-90
2022/04/06 13:05:51;;;;;;;;;;;18.30;46.20;;;;;;4993325;28;19918;-90
2022/04/06 13:08:22;;;;;;;;;;;18.40;47.60;;;;;;4975638;28;19917;-90
2022/04/06 13:10:47;;;;;;;;;;;18.20;49.20;;;;;;4991457;28;19926;-91
2022/04/06 13:13:13;;;;;;;;;;;18.10;51.00;;;;;;4979007;28;19918;-91
2022/04/06 13:15:38;;;;;;;;;;;17.80;52.40;;;;;;4988351;28;19925;-90
2022/04/06 13:18:05;;;;;;;;;;;17.50;54.60;;;;;;4982156;28;19922;-90
2022/04/06 13:20:31;;;;;;;;;;;17.40;55.60;;;;;;4993450;28;19918;-90
2022/04/06 13:22:56;;;;;;;;;;;17.20;57.00;;;;;;4978582;28;19933;-91
2022/04/06 13:25:22;;;;;;;;;;;17.10;57.50;;;;;;4979817;28;19922;-89
2022/04/06 13:27:47;;;;;;;;;;;17.10;58.60;;;;;;4979221;28;19925;-89
2022/04/06 13:30:14;;;;;;;;;;;17.00;58.80;;;;;;4974948;28;19918;-90
2022/04/06 13:32:41;;;;;;;;;;;17.00;58.70;;;;;;4995137;28;19965;-89
2022/04/06 13:35:08;;;;;;;;;;;16.80;58.50;;;;;;4978225;28;19918;-89
2022/04/06 13:37:33;;;;;;;;;;;16.80;58.90;;;;;;4993868;28;19922;-90
2022/04/06 13:39:59;;;;;;;;;;;16.80;59.30;;;;;;4985062;28;20005;-89
2022/04/06 13:42:24;;;;;;;;;;;16.70;59.60;;;;;;4973028;28;19930;-91
2022/04/06 13:44:50;;;;;;;;;;;16.60;59.40;;;;;;4978263;28;19925;-90
2022/04/06 13:47:15;;;;;;;;;;;16.50;59.70;;;;;;4995061;28;19926;-90
2022/04/06 13:49:41;;;;;;;;;;;16.40;59.80;;;;;;4983115;28;19918;-88
2022/04/06 13:52:07;;;;;;;;;;;16.40;60.00;;;;;;4988112;28;19968;-91
2022/04/06 13:54:32;;;;;;;;;;;16.40;60.50;;;;;;4986799;28;19935;-91
2022/04/06 13:56:58;;;;;;;;;;;16.30;60.30;;;;;;4997225;28;19981;-91
2022/04/06 13:59:24;;;;;;;;;;;16.20;60.10;;;;;;4979167;28;19918;-90
2022/04/06 14:01:50;;;;;;;;;;;16.00;60.30;;;;;;4972976;28;19934;-92
2022/04/06 14:04:16;;;;;;;;;;;15.90;60.80;;;;;;5000876;28;20274;-92
2022/04/06 14:06:42;;;;;;;;;;;15.90;61.40;;;;;;4984906;28;19922;-95
2022/04/06 14:09:11;;;;;;;;;;;16.00;61.80;;;;;;4985303;28;19917;-91
2022/04/06 14:11:37;;;;;;;;;;;15.90;61.80;;;;;;4979436;28;19948;-92
2022/04/06 14:14:02;;;;;;;;;;;15.80;61.90;;;;;;4999564;28;19924;-92
2022/04/06 14:16:28;;;;;;;;;;;15.80;62.10;;;;;;4981582;28;19921;-93
2022/04/06 14:18:55;;;;;;;;;;;15.90;62.10;;;;;;4980759;28;19960;-91
2022/04/06 14:21:25;;;;;;;;;;;15.90;62.10;;;;;;4996235;28;20704;-92
2022/04/06 14:23:50;;;;;;;;;;;15.70;61.90;;;;;;4985676;28;19920;-91
2022/04/06 14:26:16;;;;;;;;;;;15.70;61.90;;;;;;4997447;28;19965;-89